Time;durP1;ratioP1;P1;durP2;ratioP2;P2;SDS_P1;SDS_P2;PMS_P1;PMS_P2;Temp;Humidity;BMP_temperature;BMP_pressure;BME280_temperature;BME280_humidity;BME280_pressure;Samples;Min_cycle;Max_cycle;Signal;HPM_P1;HPM_P2
2023/09/12 00:00:34;;;;;;;8.60;6.25;;;;;;;;;;5056638;28;20032;-59
2023/09/12 00:03:00;;;;;;;7.65;5.65;;;;;;;;;;5055998;28;20021;-59
2023/09/12 00:05:26;;;;;;;7.07;6.38;;;;;;;;;;5056019;28;20045;-59
2023/09/12 00:07:53;;;;;;;7.78;6.82;;;;;;;;;;5055925;28;20110;-59
2023/09/12 00:10:19;;;;;;;11.98;6.65;;;;;;;;;;5055997;28;20027;-58
2023/09/12 00:12:45;;;;;;;9.00;6.53;;;;;;;;;;5055800;28;20029;-59
2023/09/12 00:15:12;;;;;;;7.20;6.18;;;;;;;;;;5056191;28;20132;-59
2023/09/12 00:17:38;;;;;;;6.03;5.43;;;;;;;;;;5055773;28;20021;-59
2023/09/12 00:20:06;;;;;;;8.60;6.88;;;;;;;;;;5056032;28;20031;-59
2023/09/12 00:22:32;;;;;;;8.02;6.18;;;;;;;;;;5055887;28;20025;-59
2023/09/12 00:24:58;;;;;;;7.50;6.65;;;;;;;;;;5055430;28;20364;-59
2023/09/12 00:27:24;;;;;;;8.63;7.15;;;;;;;;;;5056172;28;20023;-59
2023/09/12 00:29:50;;;;;;;8.85;7.25;;;;;;;;;;5055888;28;20379;-59
2023/09/12 00:32:16;;;;;;;8.02;6.88;;;;;;;;;;5055435;28;20029;-59
2023/09/12 00:34:42;;;;;;;8.88;7.07;;;;;;;;;;5055155;28;20025;-59
2023/09/12 00:37:07;;;;;;;7.15;6.45;;;;;;;;;;5055078;28;20072;-59
2023/09/12 00:39:33;;;;;;;8.88;6.72;;;;;;;;;;5055439;28;20037;-59
2023/09/12 00:41:59;;;;;;;9.75;7.38;;;;;;;;;;5054944;28;20040;-59
2023/09/12 00:44:25;;;;;;;9.88;6.38;;;;;;;;;;5055178;28;20028;-59
2023/09/12 00:46:52;;;;;;;10.13;6.97;;;;;;;;;;5055169;28;20021;-59
2023/09/12 00:49:19;;;;;;;8.48;6.22;;;;;;;;;;5055823;28;20435;-59
2023/09/12 00:51:45;;;;;;;9.73;6.38;;;;;;;;;;5055193;28;20162;-59
2023/09/12 00:54:11;;;;;;;8.13;7.18;;;;;;;;;;5055719;28;20075;-59
2023/09/12 00:56:37;;;;;;;10.70;7.47;;;;;;;;;;5054508;28;20037;-59
2023/09/12 00:59:04;;;;;;;9.23;7.40;;;;;;;;;;5055137;28;20021;-59
2023/09/12 01:01:32;;;;;;;7.38;6.70;;;;;;;;;;5054849;28;20036;-59
2023/09/12 01:03:58;;;;;;;8.35;7.28;;;;;;;;;;5053837;28;20021;-59
2023/09/12 01:06:28;;;;;;;9.63;8.23;;;;;;;;;;5055620;28;20053;-59
2023/09/12 01:08:54;;;;;;;7.32;6.65;;;;;;;;;;5054776;28;20031;-59
2023/09/12 01:11:20;;;;;;;7.72;6.53;;;;;;;;;;5054947;28;20025;-59
2023/09/12 01:13:46;;;;;;;8.38;6.47;;;;;;;;;;5054391;28;20459;-59
2023/09/12 01:16:12;;;;;;;13.63;7.93;;;;;;;;;;5054582;28;20113;-59
2023/09/12 01:18:38;;;;;;;7.47;6.70;;;;;;;;;;5055105;28;20052;-59
2023/09/12 01:21:12;;;;;;;7.93;6.97;;;;;;;;;;5054937;28;20032;-59
2023/09/12 01:23:45;;;;;;;12.98;7.28;;;;;;;;;;5055318;28;20107;-59
2023/09/12 01:26:29;;;;;;;6.90;6.25;;;;;;;;;;5054521;28;20036;-59
2023/09/12 01:28:57;;;;;;;7.90;6.47;;;;;;;;;;5054970;28;20362;-59
2023/09/12 01:31:24;;;;;;;8.10;7.18;;;;;;;;;;5054335;28;20379;-59
2023/09/12 01:33:55;;;;;;;7.95;6.80;;;;;;;;;;5054323;28;20025;-59
2023/09/12 01:36:21;;;;;;;;;;;;;;;;;;5055301;28;20148;-59
2023/09/12 01:38:47;;;;;;;9.63;6.20;;;;;;;;;;5054771;28;19944;-59
2023/09/12 01:41:13;;;;;;;7.68;6.28;;;;;;;;;;5054740;28;20455;-59
2023/09/12 01:43:39;;;;;;;7.28;6.60;;;;;;;;;;5053900;28;20095;-59
2023/09/12 01:46:05;;;;;;;11.38;6.93;;;;;;;;;;5054543;28;20029;-59
2023/09/12 01:48:36;;;;;;;9.98;6.43;;;;;;;;;;5053940;28;20025;-59
2023/09/12 01:51:02;;;;;;;9.95;7.13;;;;;;;;;;5054511;28;20052;-59
2023/09/12 01:53:29;;;;;;;7.68;6.60;;;;;;;;;;5054019;28;20115;-59
2023/09/12 01:55:56;;;;;;;7.90;7.00;;;;;;;;;;5053767;28;20029;-59
2023/09/12 01:58:23;;;;;;;8.05;7.00;;;;;;;;;;5054344;28;20033;-59
2023/09/12 02:00:49;;;;;;;7.32;6.63;;;;;;;;;;5054945;28;20020;-59
2023/09/12 02:03:14;;;;;;;10.15;7.70;;;;;;;;;;5053801;28;20025;-59
2023/09/12 02:05:41;;;;;;;9.95;7.85;;;;;;;;;;5054283;28;20410;-59
2023/09/12 02:08:06;;;;;;;9.43;7.45;;;;;;;;;;5054271;28;20032;-59
2023/09/12 02:10:33;;;;;;;8.35;7.45;;;;;;;;;;5053974;28;20017;-59
2023/09/12 02:12:59;;;;;;;9.82;7.57;;;;;;;;;;5053676;28;20013;-59
2023/09/12 02:15:25;;;;;;;8.13;7.10;;;;;;;;;;5053571;28;20091;-59
2023/09/12 02:17:52;;;;;;;9.15;8.23;;;;;;;;;;5053592;28;20036;-59
2023/09/12 02:20:19;;;;;;;9.02;8.13;;;;;;;;;;5054107;28;20359;-59
2023/09/12 02:22:45;;;;;;;8.20;7.10;;;;;;;;;;5053492;28;20025;-59
2023/09/12 02:25:11;;;;;;;9.38;8.38;;;;;;;;;;5053510;28;20033;-59
2023/09/12 02:27:37;;;;;;;12.52;7.00;;;;;;;;;;5053179;28;20485;-59
2023/09/12 02:30:03;;;;;;;9.70;7.22;;;;;;;;;;5054005;28;20021;-59
2023/09/12 02:32:29;;;;;;;8.10;6.72;;;;;;;;;;5053644;28;20051;-59
2023/09/12 02:34:57;;;;;;;9.23;7.80;;;;;;;;;;5053864;28;20039;-59
2023/09/12 02:37:22;;;;;;;9.57;7.93;;;;;;;;;;5054016;28;20053;-59
2023/09/12 02:39:48;;;;;;;9.00;6.47;;;;;;;;;;5053919;28;20450;-59
2023/09/12 02:42:14;;;;;;;9.65;6.97;;;;;;;;;;5053398;28;20470;-59
2023/09/12 02:44:40;;;;;;;7.97;6.63;;;;;;;;;;5054100;28;20112;-59
2023/09/12 02:47:06;;;;;;;7.53;6.50;;;;;;;;;;5053707;28;20019;-59
2023/09/12 02:49:32;;;;;;;8.70;7.57;;;;;;;;;;5053515;28;20342;-59
2023/09/12 02:51:58;;;;;;;9.30;7.68;;;;;;;;;;5054089;28;20097;-59
2023/09/12 02:54:24;;;;;;;10.38;7.93;;;;;;;;;;5053206;28;20528;-59
2023/09/12 02:56:50;;;;;;;8.60;7.75;;;;;;;;;;5053679;28;20025;-59
2023/09/12 02:59:16;;;;;;;9.50;7.70;;;;;;;;;;5053753;28;20348;-59
2023/09/12 03:01:42;;;;;;;9.65;7.15;;;;;;;;;;5053167;28;20013;-59
2023/09/12 03:04:08;;;;;;;9.27;7.28;;;;;;;;;;5053073;28;20028;-59
2023/09/12 03:06:34;;;;;;;11.35;8.52;;;;;;;;;;5053021;28;20032;-59
2023/09/12 03:09:00;;;;;;;7.40;6.60;;;;;;;;;;5053666;28;20037;-59
2023/09/12 03:11:27;;;;;;;8.18;7.35;;;;;;;;;;5053835;28;20417;-59
2023/09/12 03:13:53;;;;;;;11.18;7.55;;;;;;;;;;5053021;28;20033;-59
2023/09/12 03:16:19;;;;;;;9.20;7.10;;;;;;;;;;5053182;28;20426;-59
2023/09/12 03:18:45;;;;;;;7.57;6.75;;;;;;;;;;5052911;28;20148;-59
2023/09/12 03:21:11;;;;;;;10.60;8.25;;;;;;;;;;5053803;28;20386;-59
2023/09/12 03:23:37;;;;;;;11.75;7.80;;;;;;;;;;5052581;28;20127;-59
2023/09/12 03:26:04;;;;;;;10.00;8.05;;;;;;;;;;5052548;28;20374;-59
2023/09/12 03:28:30;;;;;;;8.88;7.95;;;;;;;;;;5055094;28;20029;-59
2023/09/12 03:31:11;;;;;;;9.93;8.93;;;;;;;;;;5056872;28;20392;-59
2023/09/12 03:33:37;;;;;;;13.60;8.30;;;;;;;;;;5056479;28;20021;-59
2023/09/12 03:36:03;;;;;;;14.93;7.85;;;;;;;;;;5056377;28;20030;-59
2023/09/12 03:38:29;;;;;;;8.43;7.47;;;;;;;;;;5056213;28;20021;-59
2023/09/12 03:40:55;;;;;;;9.23;7.65;;;;;;;;;;5057252;28;20114;-59
2023/09/12 03:43:21;;;;;;;7.97;7.18;;;;;;;;;;5056364;28;20025;-59
2023/09/12 03:45:47;;;;;;;9.93;8.45;;;;;;;;;;5056499;28;20029;-58
2023/09/12 03:48:13;;;;;;;9.13;8.00;;;;;;;;;;5056219;28;20023;-58
2023/09/12 03:50:39;;;;;;;8.73;7.50;;;;;;;;;;5056080;28;20036;-59
2023/09/12 03:53:05;;;;;;;9.90;7.50;;;;;;;;;;5056241;28;20102;-59
2023/09/12 03:55:31;;;;;;;7.68;6.60;;;;;;;;;;5054859;28;20486;-59
2023/09/12 03:57:57;;;;;;;9.32;7.85;;;;;;;;;;5056121;28;20025;-59
2023/09/12 04:00:22;;;;;;;8.40;7.53;;;;;;;;;;5056449;28;20083;-59
2023/09/12 04:02:48;;;;;;;8.63;7.82;;;;;;;;;;5056063;28;20017;-59
2023/09/12 04:05:14;;;;;;;8.80;7.88;;;;;;;;;;5056121;28;20494;-59
2023/09/12 04:07:40;;;;;;;8.07;7.00;;;;;;;;;;5056257;28;20029;-59
2023/09/12 04:10:06;;;;;;;8.20;7.40;;;;;;;;;;5056605;28;20108;-59
2023/09/12 04:12:32;;;;;;;10.65;7.63;;;;;;;;;;5056154;28;20125;-59
2023/09/12 04:14:58;;;;;;;8.48;7.43;;;;;;;;;;5055392;28;20064;-59
2023/09/12 04:17:24;;;;;;;8.73;7.65;;;;;;;;;;5055903;28;20095;-59
2023/09/12 04:19:53;;;;;;;7.55;6.82;;;;;;;;;;5056232;28;20072;-59
2023/09/12 04:22:19;;;;;;;10.65;7.50;;;;;;;;;;5055755;28;20017;-59
2023/09/12 04:24:45;;;;;;;9.20;8.07;;;;;;;;;;5056460;28;20116;-59
2023/09/12 04:27:11;;;;;;;9.35;8.40;;;;;;;;;;5055191;28;20021;-59
2023/09/12 04:29:37;;;;;;;9.82;7.55;;;;;;;;;;5055437;28;20463;-59
2023/09/12 04:32:03;;;;;;;8.57;7.68;;;;;;;;;;5055438;28;20050;-59
2023/09/12 04:34:30;;;;;;;14.18;8.57;;;;;;;;;;5055139;28;20096;-59
2023/09/12 04:36:56;;;;;;;10.50;7.30;;;;;;;;;;5054799;28;20059;-59
2023/09/12 04:39:22;;;;;;;9.23;6.78;;;;;;;;;;5055384;28;20029;-59
2023/09/12 04:41:48;;;;;;;8.73;7.90;;;;;;;;;;5056029;28;20117;-58
2023/09/12 04:44:14;;;;;;;12.90;8.68;;;;;;;;;;5055344;28;20028;-59
2023/09/12 04:46:40;;;;;;;8.32;7.40;;;;;;;;;;5055070;28;20025;-59
2023/09/12 04:49:06;;;;;;;9.38;8.25;;;;;;;;;;5055576;28;20025;-59
2023/09/12 04:51:32;;;;;;;10.93;8.15;;;;;;;;;;5055157;28;20025;-59
2023/09/12 04:53:58;;;;;;;14.02;7.70;;;;;;;;;;5055586;28;20027;-59
2023/09/12 04:56:24;;;;;;;9.20;8.30;;;;;;;;;;5055010;28;20029;-58
2023/09/12 04:58:50;;;;;;;10.30;8.60;;;;;;;;;;5055722;28;20362;-59
2023/09/12 05:01:16;;;;;;;11.57;9.27;;;;;;;;;;5054681;28;20052;-59
2023/09/12 05:03:45;;;;;;;9.15;8.25;;;;;;;;;;5055471;28;20059;-59
2023/09/12 05:06:12;;;;;;;11.13;9.20;;;;;;;;;;5055369;28;20029;-59
2023/09/12 05:08:38;;;;;;;9.98;8.40;;;;;;;;;;5055105;28;20021;-59
2023/09/12 05:11:04;;;;;;;10.85;8.18;;;;;;;;;;5055615;28;20418;-59
2023/09/12 05:13:30;;;;;;;9.00;8.20;;;;;;;;;;5055327;28;20332;-58
2023/09/12 05:15:56;;;;;;;9.32;8.38;;;;;;;;;;5054661;28;20116;-59
2023/09/12 05:18:22;;;;;;;9.50;8.50;;;;;;;;;;5054712;28;20033;-59
2023/09/12 05:20:48;;;;;;;14.13;8.55;;;;;;;;;;5055268;28;20032;-59
2023/09/12 05:23:14;;;;;;;8.85;7.95;;;;;;;;;;5055085;28;20037;-59
2023/09/12 05:25:40;;;;;;;10.93;8.48;;;;;;;;;;5054442;28;20037;-59
2023/09/12 05:28:07;;;;;;;10.13;8.20;;;;;;;;;;5055004;28;20115;-59
2023/09/12 05:30:33;;;;;;;12.63;8.07;;;;;;;;;;5054696;28;20029;-59
2023/09/12 05:32:59;;;;;;;8.75;7.70;;;;;;;;;;5054445;28;20027;-59
2023/09/12 05:35:24;;;;;;;10.13;8.48;;;;;;;;;;5054278;28;20021;-59
2023/09/12 05:37:51;;;;;;;8.93;8.05;;;;;;;;;;5054684;28;20061;-59
2023/09/12 05:40:18;;;;;;;9.57;8.63;;;;;;;;;;5054844;28;20025;-59
2023/09/12 05:42:44;;;;;;;9.95;8.45;;;;;;;;;;5053798;28;20079;-59
2023/09/12 05:45:10;;;;;;;9.68;8.77;;;;;;;;;;5054663;28;20398;-59
2023/09/12 05:47:36;;;;;;;12.38;8.50;;;;;;;;;;5054469;28;20456;-59
2023/09/12 05:50:05;;;;;;;9.10;8.20;;;;;;;;;;5053741;28;20497;-59
2023/09/12 05:52:31;;;;;;;11.07;8.57;;;;;;;;;;5054034;28;20064;-59
2023/09/12 05:54:57;;;;;;;9.50;8.23;;;;;;;;;;5054568;28;20025;-59
2023/09/12 05:57:23;;;;;;;8.70;7.43;;;;;;;;;;5054436;28;20032;-59
2023/09/12 05:59:50;;;;;;;9.95;7.60;;;;;;;;;;5054517;28;20021;-59
2023/09/12 06:02:17;;;;;;;8.55;7.78;;;;;;;;;;5053575;28;20025;-59
2023/09/12 06:04:43;;;;;;;9.02;8.10;;;;;;;;;;5054353;28;20029;-59
2023/09/12 06:07:09;;;;;;;9.98;7.70;;;;;;;;;;5053502;28;20021;-59
2023/09/12 06:09:35;;;;;;;8.45;7.65;;;;;;;;;;5053745;28;20530;-59
2023/09/12 06:12:02;;;;;;;9.02;8.15;;;;;;;;;;5053735;28;20029;-59
2023/09/12 06:14:28;;;;;;;8.07;7.13;;;;;;;;;;5054245;28;20032;-59
2023/09/12 06:16:54;;;;;;;9.98;6.57;;;;;;;;;;5053652;28;20451;-59
2023/09/12 06:19:19;;;;;;;7.43;6.40;;;;;;;;;;5054500;28;20021;-59
2023/09/12 06:21:46;;;;;;;8.90;6.85;;;;;;;;;;5053531;28;20025;-59
2023/09/12 06:24:15;;;;;;;9.82;7.15;;;;;;;;;;5053571;28;20378;-59
2023/09/12 06:26:41;;;;;;;8.13;7.33;;;;;;;;;;5054138;28;20083;-59
2023/09/12 06:29:07;;;;;;;9.25;6.93;;;;;;;;;;5053597;28;20652;-59
2023/09/12 06:31:33;;;;;;;6.80;6.10;;;;;;;;;;5053432;28;20020;-59
2023/09/12 06:33:59;;;;;;;11.32;6.93;;;;;;;;;;5053520;28;20151;-59
2023/09/12 06:36:26;;;;;;;11.50;7.80;;;;;;;;;;5053981;28;20067;-59
2023/09/12 06:38:52;;;;;;;8.10;7.10;;;;;;;;;;5053700;28;20027;-58
2023/09/12 06:41:21;;;;;;;9.30;7.18;;;;;;;;;;5053712;28;20029;-59
2023/09/12 06:43:47;;;;;;;9.70;7.38;;;;;;;;;;5053363;28;20017;-59
2023/09/12 06:46:13;;;;;;;8.55;7.65;;;;;;;;;;5053384;28;20036;-59
2023/09/12 06:48:39;;;;;;;7.80;6.88;;;;;;;;;;5053302;28;20063;-59
2023/09/12 06:51:06;;;;;;;8.77;6.97;;;;;;;;;;5054053;28;20029;-59
2023/09/12 06:53:32;;;;;;;6.82;6.13;;;;;;;;;;5053294;28;20379;-59
2023/09/12 06:55:58;;;;;;;7.25;6.55;;;;;;;;;;5052941;28;20021;-59
2023/09/12 06:58:24;;;;;;;6.93;6.30;;;;;;;;;;5053788;28;20032;-59
2023/09/12 07:00:50;;;;;;;8.90;6.90;;;;;;;;;;5053264;28;20036;-59
2023/09/12 07:03:16;;;;;;;9.50;6.18;;;;;;;;;;5055855;28;20034;-59
2023/09/12 07:05:43;;;;;;;8.25;6.15;;;;;;;;;;5057996;28;20029;-59
2023/09/12 07:08:09;;;;;;;7.53;6.72;;;;;;;;;;5057582;28;20025;-59
2023/09/12 07:10:35;;;;;;;6.80;6.10;;;;;;;;;;5057215;28;20099;-59
2023/09/12 07:13:01;;;;;;;7.18;5.68;;;;;;;;;;5057371;28;20036;-59
2023/09/12 07:15:27;;;;;;;7.43;5.47;;;;;;;;;;5056977;28;20029;-59
2023/09/12 07:17:53;;;;;;;8.52;6.40;;;;;;;;;;5057005;28;20481;-59
2023/09/12 07:20:20;;;;;;;7.10;6.40;;;;;;;;;;5057514;28;20068;-59
2023/09/12 07:22:46;;;;;;;6.97;6.28;;;;;;;;;;5057487;28;20027;-59
2023/09/12 07:25:12;;;;;;;8.48;6.88;;;;;;;;;;5057353;28;20025;-59
2023/09/12 07:27:38;;;;;;;7.82;7.03;;;;;;;;;;5056467;28;20470;-59
2023/09/12 07:30:05;;;;;;;8.60;6.70;;;;;;;;;;5057137;28;20033;-59
2023/09/12 07:32:31;;;;;;;11.40;6.80;;;;;;;;;;5056619;28;20021;-59
2023/09/12 07:34:57;;;;;;;7.28;6.60;;;;;;;;;;5056425;28;20017;-59
2023/09/12 07:37:22;;;;;;;8.35;6.70;;;;;;;;;;5057222;28;20049;-59
2023/09/12 07:39:48;;;;;;;8.45;6.65;;;;;;;;;;5057220;28;20020;-59
2023/09/12 07:42:14;;;;;;;7.90;6.97;;;;;;;;;;5057095;28;20017;-59
2023/09/12 07:44:40;;;;;;;8.27;6.20;;;;;;;;;;5057041;28;20025;-59
2023/09/12 07:47:07;;;;;;;6.07;5.47;;;;;;;;;;5056441;28;20017;-59
2023/09/12 07:49:33;;;;;;;8.85;5.95;;;;;;;;;;5057037;28;20100;-59
2023/09/12 07:51:59;;;;;;;10.57;7.30;;;;;;;;;;5056651;28;20021;-59
2023/09/12 07:54:25;;;;;;;8.05;7.25;;;;;;;;;;5056606;28;20025;-59
2023/09/12 07:56:51;;;;;;;7.50;6.70;;;;;;;;;;5055934;28;20033;-59
2023/09/12 07:59:17;;;;;;;9.68;7.22;;;;;;;;;;5056830;28;20029;-59
2023/09/12 08:01:43;;;;;;;7.05;6.00;;;;;;;;;;5055397;28;20024;-59
2023/09/12 08:04:09;;;;;;;8.23;7.35;;;;;;;;;;5055871;28;20022;-59
2023/09/12 08:06:35;;;;;;;11.38;6.82;;;;;;;;;;5056088;28;20020;-59
2023/09/12 08:09:01;;;;;;;6.57;5.97;;;;;;;;;;5056068;28;20123;-59
2023/09/12 08:11:28;;;;;;;9.55;7.88;;;;;;;;;;5055893;28;20064;-59
2023/09/12 08:13:54;;;;;;;10.43;7.20;;;;;;;;;;5055079;28;20471;-59
2023/09/12 08:16:20;;;;;;;7.70;6.68;;;;;;;;;;5055885;28;20040;-59
2023/09/12 08:18:45;;;;;;;7.82;7.05;;;;;;;;;;5055871;28;20025;-59
2023/09/12 08:21:11;;;;;;;7.97;7.18;;;;;;;;;;5056186;28;20017;-59
2023/09/12 08:23:37;;;;;;;9.23;7.95;;;;;;;;;;5055829;28;20205;-59
2023/09/12 08:26:03;;;;;;;8.45;7.18;;;;;;;;;;5055724;28;20124;-59
2023/09/12 08:28:29;;;;;;;8.68;7.88;;;;;;;;;;5056192;28;20032;-59
2023/09/12 08:30:55;;;;;;;8.55;7.70;;;;;;;;;;5056200;28;20443;-59
2023/09/12 08:33:21;;;;;;;7.53;6.75;;;;;;;;;;5056117;28;20025;-59
2023/09/12 08:35:47;;;;;;;8.23;6.10;;;;;;;;;;5055997;28;20037;-59
2023/09/12 08:38:16;;;;;;;7.53;6.82;;;;;;;;;;5055594;28;20387;-59
2023/09/12 08:40:49;;;;;;;8.23;6.97;;;;;;;;;;5055476;28;20017;-59
2023/09/12 08:43:15;;;;;;;10.43;6.82;;;;;;;;;;5056028;28;20029;-59
2023/09/12 08:45:43;;;;;;;8.93;6.75;;;;;;;;;;5055368;28;20108;-59
2023/09/12 08:48:10;;;;;;;9.45;7.05;;;;;;;;;;5055347;28;20027;-59
2023/09/12 08:50:36;;;;;;;8.05;7.22;;;;;;;;;;5055772;28;20412;-59
2023/09/12 08:53:03;;;;;;;8.57;6.90;;;;;;;;;;5055758;28;20048;-59
2023/09/12 08:55:29;;;;;;;11.57;6.97;;;;;;;;;;5054973;28;20463;-59
2023/09/12 08:57:56;;;;;;;9.63;8.45;;;;;;;;;;5055640;28;20021;-59
2023/09/12 09:00:23;;;;;;;7.57;6.40;;;;;;;;;;5055670;28;20025;-59
2023/09/12 09:02:49;;;;;;;8.48;6.97;;;;;;;;;;5055375;28;20451;-59
2023/09/12 09:05:16;;;;;;;7.95;7.15;;;;;;;;;;5054987;28;20102;-59
2023/09/12 09:07:43;;;;;;;7.82;7.13;;;;;;;;;;5054590;28;20029;-59
2023/09/12 09:10:14;;;;;;;7.65;6.95;;;;;;;;;;5055438;28;20021;-59
2023/09/12 09:12:41;;;;;;;8.40;7.50;;;;;;;;;;5055439;28;20167;-59
2023/09/12 09:15:27;;;;;;;10.07;7.20;;;;;;;;;;5055222;28;20459;-59
2023/09/12 09:17:53;;;;;;;8.70;7.13;;;;;;;;;;5054619;28;20040;-59
2023/09/12 09:20:23;;;;;;;10.10;7.80;;;;;;;;;;5055301;28;20021;-59
2023/09/12 09:23:05;;;;;;;10.15;6.95;;;;;;;;;;5054681;28;20021;-59
2023/09/12 09:25:31;;;;;;;8.65;7.80;;;;;;;;;;5054182;28;20032;-59
2023/09/12 09:27:57;;;;;;;7.63;6.80;;;;;;;;;;5054414;28;20514;-59
2023/09/12 09:30:39;;;;;;;8.68;7.65;;;;;;;;;;5055313;28;20114;-59
2023/09/12 09:33:05;;;;;;;7.38;6.63;;;;;;;;;;5054477;28;20032;-59
2023/09/12 09:35:31;;;;;;;6.82;6.13;;;;;;;;;;5054251;28;20121;-59
2023/09/12 09:37:57;;;;;;;7.25;6.55;;;;;;;;;;5054769;28;20131;-59
2023/09/12 09:40:23;;;;;;;12.70;7.00;;;;;;;;;;5054723;28;20021;-59
2023/09/12 09:42:53;;;;;;;7.95;6.72;;;;;;;;;;5054141;28;20518;-59
2023/09/12 09:45:19;;;;;;;7.03;6.15;;;;;;;;;;5054775;28;20028;-60
2023/09/12 09:47:45;;;;;;;7.95;6.03;;;;;;;;;;5054501;28;20439;-59
2023/09/12 09:50:15;;;;;;;10.52;6.97;;;;;;;;;;5054125;28;20056;-59
2023/09/12 09:52:41;;;;;;;8.10;6.43;;;;;;;;;;5054970;28;20413;-59
2023/09/12 09:55:07;;;;;;;11.05;6.95;;;;;;;;;;5054032;28;20021;-59
2023/09/12 09:57:39;;;;;;;8.23;7.43;;;;;;;;;;5054242;28;20075;-59
2023/09/12 10:00:08;;;;;;;7.60;6.85;;;;;;;;;;5054000;28;20094;-59
2023/09/12 10:02:36;;;;;;;12.68;6.43;;;;;;;;;;5054074;28;20052;-59
2023/09/12 10:05:05;;;;;;;13.80;6.53;;;;;;;;;;5053920;28;20083;-60
2023/09/12 10:07:33;;;;;;;8.55;6.93;;;;;;;;;;5053637;28;20056;-59
2023/09/12 10:10:01;;;;;;;7.15;6.45;;;;;;;;;;5053763;28;20021;-59
2023/09/12 10:12:30;;;;;;;7.43;6.65;;;;;;;;;;5053930;28;20025;-59
2023/09/12 10:14:57;;;;;;;7.40;6.70;;;;;;;;;;5053608;28;20379;-59
2023/09/12 10:17:26;;;;;;;7.78;7.00;;;;;;;;;;5054510;28;20043;-59
2023/09/12 10:19:59;;;;;;;9.20;7.22;;;;;;;;;;5054490;28;20021;-59
2023/09/12 10:22:28;;;;;;;9.40;7.03;;;;;;;;;;5054211;28;20103;-59
2023/09/12 10:24:56;;;;;;;6.90;6.22;;;;;;;;;;5053642;28;20048;-59
2023/09/12 10:27:23;;;;;;;6.90;6.10;;;;;;;;;;5053626;28;20047;-60
2023/09/12 10:29:52;;;;;;;10.32;6.50;;;;;;;;;;5054377;28;20029;-59
2023/09/12 10:32:20;;;;;;;8.25;6.43;;;;;;;;;;5054023;28;20439;-59
2023/09/12 10:34:47;;;;;;;6.47;5.53;;;;;;;;;;5054031;28;20064;-59
2023/09/12 10:37:15;;;;;;;8.80;5.72;;;;;;;;;;5052905;28;20132;-59
2023/09/12 10:39:43;;;;;;;7.13;6.05;;;;;;;;;;5053401;28;20471;-59
2023/09/12 10:42:09;;;;;;;6.68;6.07;;;;;;;;;;5053754;28;20108;-59
2023/09/12 10:44:35;;;;;;;9.00;6.68;;;;;;;;;;5053893;28;20362;-60
2023/09/12 10:47:02;;;;;;;7.75;6.60;;;;;;;;;;5053353;28;20033;-59
2023/09/12 10:49:28;;;;;;;8.32;6.97;;;;;;;;;;5053829;28;20021;-60
2023/09/12 10:51:55;;;;;;;8.15;5.63;;;;;;;;;;5053110;28;20079;-60
2023/09/12 10:54:25;;;;;;;9.77;5.90;;;;;;;;;;5053809;28;20029;-60
2023/09/12 10:57:07;;;;;;;10.05;6.75;;;;;;;;;;5053216;28;20021;-60
2023/09/12 10:59:36;;;;;;;8.00;6.63;;;;;;;;;;5053622;28;20082;-60
2023/09/12 11:02:21;;;;;;;6.93;6.22;;;;;;;;;;5053191;28;20021;-60
2023/09/12 11:04:47;;;;;;;5.47;4.90;;;;;;;;;;5053171;28;20455;-60
2023/09/12 11:07:42;;;;;;;5.70;5.10;;;;;;;;;;5052859;28;20079;-60
2023/09/12 11:10:18;;;;;;;5.95;4.82;;;;;;;;;;5048162;28;20061;-60
2023/09/12 11:12:44;;;;;;;6.15;4.90;;;;;;;;;;5053736;28;20021;-60
2023/09/12 11:15:11;;;;;;;8.48;5.40;;;;;;;;;;5053577;28;20040;-60
2023/09/12 11:17:41;;;;;;;5.65;4.45;;;;;;;;;;5053481;28;20455;-60
2023/09/12 11:20:10;;;;;;;5.82;4.55;;;;;;;;;;5054286;28;20092;-60
2023/09/12 11:22:40;;;;;;;6.07;5.20;;;;;;;;;;5053644;28;20020;-60
2023/09/12 11:25:16;;;;;;;5.72;4.75;;;;;;;;;;5053555;28;20051;-60
2023/09/12 11:27:55;;;;;;;5.78;5.18;;;;;;;;;;5053339;28;20462;-60
2023/09/12 11:30:21;;;;;;;5.35;4.82;;;;;;;;;;5053854;28;20052;-60
2023/09/12 11:32:49;;;;;;;6.05;4.38;;;;;;;;;;5052710;28;20375;-60
2023/09/12 11:35:16;;;;;;;6.65;4.40;;;;;;;;;;5053696;28;20135;-60
2023/09/12 11:37:48;;;;;;;5.22;4.32;;;;;;;;;;5052930;28;20083;-60
2023/09/12 11:40:15;;;;;;;5.85;4.18;;;;;;;;;;5053201;28;20027;-60
2023/09/12 11:42:46;;;;;;;11.27;5.18;;;;;;;;;;5053293;28;20029;-60
2023/09/12 11:45:12;;;;;;;5.57;4.78;;;;;;;;;;5053525;28;20034;-60
2023/09/12 11:47:42;;;;;;;9.07;5.75;;;;;;;;;;5052981;28;20032;-60
2023/09/12 11:50:08;;;;;;;8.93;5.07;;;;;;;;;;5056834;28;20033;-60
2023/09/12 11:52:39;;;;;;;6.75;5.25;;;;;;;;;;5056374;28;20248;-60
2023/09/12 11:55:06;;;;;;;6.32;5.55;;;;;;;;;;5056359;28;20434;-60
2023/09/12 11:57:32;;;;;;;5.95;5.43;;;;;;;;;;5056668;28;20450;-60
2023/09/12 11:59:58;;;;;;;6.18;4.93;;;;;;;;;;5056802;28;20021;-60
2023/09/12 12:02:24;;;;;;;6.90;5.30;;;;;;;;;;5056522;28;20472;-60
2023/09/12 12:04:50;;;;;;;9.82;5.18;;;;;;;;;;5055819;28;20025;-60
2023/09/12 12:07:16;;;;;;;7.85;5.57;;;;;;;;;;5056450;28;20033;-60
2023/09/12 12:09:43;;;;;;;6.55;5.53;;;;;;;;;;5056110;28;20035;-60
2023/09/12 12:12:10;;;;;;;7.53;5.00;;;;;;;;;;5055920;28;20028;-60
2023/09/12 12:14:36;;;;;;;7.47;4.93;;;;;;;;;;5056495;28;20082;-60
2023/09/12 12:17:09;;;;;;;7.38;6.00;;;;;;;;;;5056437;28;20033;-60
2023/09/12 12:19:36;;;;;;;9.15;5.82;;;;;;;;;;5055891;28;20028;-60
2023/09/12 12:22:05;;;;;;;8.23;5.47;;;;;;;;;;5055817;28;20025;-60
2023/09/12 12:24:37;;;;;;;6.25;4.68;;;;;;;;;;5055760;28;20462;-60
2023/09/12 12:27:04;;;;;;;8.98;5.80;;;;;;;;;;5056295;28;20037;-60
2023/09/12 12:29:33;;;;;;;6.30;5.55;;;;;;;;;;5056064;28;20414;-60
2023/09/12 12:32:02;;;;;;;7.43;5.28;;;;;;;;;;5055310;28;20541;-60
2023/09/12 12:34:28;;;;;;;9.73;5.70;;;;;;;;;;5056130;28;20021;-60
2023/09/12 12:36:55;;;;;;;6.20;5.60;;;;;;;;;;5055668;28;20052;-60
2023/09/12 12:39:22;;;;;;;9.98;5.55;;;;;;;;;;5055481;28;20119;-60
2023/09/12 12:41:48;;;;;;;8.07;5.40;;;;;;;;;;5056267;28;20021;-60
2023/09/12 12:44:15;;;;;;;5.70;4.68;;;;;;;;;;5055753;28;20104;-60
2023/09/12 12:46:50;;;;;;;8.60;5.05;;;;;;;;;;5055853;28;20390;-60
2023/09/12 12:49:16;;;;;;;4.80;4.30;;;;;;;;;;5055928;28;20025;-60
2023/09/12 12:51:43;;;;;;;6.03;4.85;;;;;;;;;;5055370;28;20340;-60
2023/09/12 12:54:09;;;;;;;6.75;4.80;;;;;;;;;;5055824;28;20082;-60
2023/09/12 12:56:35;;;;;;;7.20;5.32;;;;;;;;;;5055641;28;20033;-60
2023/09/12 12:59:06;;;;;;;6.82;4.60;;;;;;;;;;5055586;28;20359;-60
2023/09/12 13:01:33;;;;;;;6.57;4.63;;;;;;;;;;5055057;28;20025;-60
2023/09/12 13:03:59;;;;;;;5.72;4.90;;;;;;;;;;5055055;28;20025;-60
2023/09/12 13:06:27;;;;;;;5.68;4.15;;;;;;;;;;5054988;28;20070;-60
2023/09/12 13:08:53;;;;;;;11.40;5.30;;;;;;;;;;5055456;28;20075;-60
2023/09/12 13:11:20;;;;;;;5.55;4.75;;;;;;;;;;5055462;28;20025;-60
2023/09/12 13:13:48;;;;;;;8.02;4.20;;;;;;;;;;5054864;28;20049;-60
2023/09/12 13:16:15;;;;;;;5.13;4.60;;;;;;;;;;5054753;28;20025;-60
2023/09/12 13:18:41;;;;;;;9.27;4.88;;;;;;;;;;5054498;28;20458;-61
2023/09/12 13:21:07;;;;;;;5.72;5.10;;;;;;;;;;5055283;28;20086;-60
2023/09/12 13:23:37;;;;;;;5.97;5.22;;;;;;;;;;5055203;28;20103;-60
2023/09/12 13:26:03;;;;;;;8.45;5.18;;;;;;;;;;5055158;28;20124;-60
2023/09/12 13:28:29;;;;;;;6.55;5.43;;;;;;;;;;5055123;28;20355;-60
2023/09/12 13:30:55;;;;;;;5.32;4.82;;;;;;;;;;5054559;28;20033;-60
2023/09/12 13:33:21;;;;;;;5.72;5.10;;;;;;;;;;5054395;28;20075;-60
2023/09/12 13:35:48;;;;;;;7.97;4.95;;;;;;;;;;5055129;28;20454;-60
2023/09/12 13:38:16;;;;;;;15.48;5.00;;;;;;;;;;5055102;28;20052;-60
2023/09/12 13:40:42;;;;;;;6.85;5.25;;;;;;;;;;5054951;28;20099;-60
2023/09/12 13:43:08;;;;;;;7.18;4.72;;;;;;;;;;5054342;28;20372;-60
2023/09/12 13:45:35;;;;;;;6.35;4.72;;;;;;;;;;5054246;28;20116;-60
2023/09/12 13:48:01;;;;;;;9.52;5.88;;;;;;;;;;5054897;28;20029;-60
2023/09/12 13:50:27;;;;;;;5.00;4.47;;;;;;;;;;5054662;28;20021;-60
2023/09/12 13:52:55;;;;;;;6.28;5.07;;;;;;;;;;5054184;28;20028;-60
2023/09/12 13:55:22;;;;;;;5.47;4.32;;;;;;;;;;5054741;28;20021;-60
2023/09/12 13:57:47;;;;;;;4.97;4.32;;;;;;;;;;5054060;28;20017;-60
2023/09/12 14:00:14;;;;;;;5.20;4.70;;;;;;;;;;5054661;28;20468;-60
2023/09/12 14:02:39;;;;;;;6.07;4.55;;;;;;;;;;5053952;28;20123;-60
2023/09/12 14:05:05;;;;;;;6.25;4.45;;;;;;;;;;5053608;28;20064;-60
2023/09/12 14:07:31;;;;;;;6.28;4.28;;;;;;;;;;5053841;28;20029;-60
2023/09/12 14:09:57;;;;;;;7.63;5.25;;;;;;;;;;5054274;28;20028;-60
2023/09/12 14:12:25;;;;;;;5.30;4.82;;;;;;;;;;5053275;28;20047;-60
2023/09/12 14:14:51;;;;;;;7.57;4.25;;;;;;;;;;5054219;28;20033;-60
2023/09/12 14:17:17;;;;;;;5.95;4.85;;;;;;;;;;5054178;28;20029;-60
2023/09/12 14:19:43;;;;;;;5.88;4.97;;;;;;;;;;5054488;28;20110;-60
2023/09/12 14:22:09;;;;;;;6.85;5.25;;;;;;;;;;5053690;28;20025;-60
2023/09/12 14:24:35;;;;;;;5.75;5.05;;;;;;;;;;5053653;28;20108;-60
2023/09/12 14:27:01;;;;;;;4.80;4.30;;;;;;;;;;5053593;28;20035;-60
2023/09/12 14:29:29;;;;;;;5.15;4.65;;;;;;;;;;5053914;28;20025;-60
2023/09/12 14:31:57;;;;;;;13.13;5.63;;;;;;;;;;5053781;28;20028;-60
2023/09/12 14:34:27;;;;;;;7.50;4.95;;;;;;;;;;5053556;28;20074;-60
2023/09/12 14:36:54;;;;;;;6.28;4.90;;;;;;;;;;5053521;28;20065;-60
2023/09/12 14:39:21;;;;;;;8.77;5.38;;;;;;;;;;5053970;28;20379;-60